Time;durP1;ratioP1;P1;durP2;ratioP2;P2;SDS_P1;SDS_P2;PMS_P1;PMS_P2;Temp;Humidity;BMP_temperature;BMP_pressure;BME280_temperature;BME280_humidity;BME280_pressure;Samples;Min_cycle;Max_cycle;Signal;HPM_P1;HPM_P2
2022/08/19 00:01:48;;;;;;;;;;;;;;;27.97;42.35;99244.41;4367369;32;34091;-66
2022/08/19 00:04:21;;;;;;;;;;;;;;;27.24;43.67;99246.53;4367269;32;33590;-66
2022/08/19 00:06:48;;;;;;;;;;;;;;;27.58;42.99;99256.59;4365830;32;34392;-66
2022/08/19 00:09:16;;;;;;;;;;;;;;;27.49;43.23;99247.69;4366954;32;35380;-72
2022/08/19 00:11:44;;;;;;;;;;;;;;;27.51;43.22;99247.31;4367010;32;33915;-82
2022/08/19 00:14:12;;;;;;;;;;;;;;;27.35;43.46;99251.06;4367221;32;33457;-82
2022/08/19 00:16:39;;;;;;;;;;;;;;;27.35;43.57;99251.06;4366852;32;34989;-66
2022/08/19 00:19:06;;;;;;;;;;;;;;;27.54;42.91;99255.75;4366908;32;35488;-81
2022/08/19 00:21:39;;;;;;;;;;;;;;;27.32;43.21;99249.03;4365870;32;34241;-66
2022/08/19 00:24:07;;;;;;;;;;;;;;;27.33;43.24;99245.06;4364175;32;33377;-82
2022/08/19 00:26:35;;;;;;;;;;;;;;;27.48;43.17;99242.50;4364286;32;35045;-67
2022/08/19 00:29:05;;;;;;;;;;;;;;;27.36;43.53;99251.88;4364222;32;34525;-78
2022/08/19 00:31:33;;;;;;;;;;;;;;;26.73;44.34;99248.41;4364171;32;34703;-67
2022/08/19 00:34:00;;;;;;;;;;;;;;;26.86;44.30;99243.47;4364210;32;34265;-66
2022/08/19 00:36:28;;;;;;;;;;;;;;;27.25;44.09;99240.56;4364109;32;35036;-70
2022/08/19 00:38:56;;;;;;;;;;;;;;;26.84;44.78;99248.59;4362989;32;34474;-79
2022/08/19 00:41:23;;;;;;;;;;;;;;;27.06;44.14;99258.09;4364139;32;34233;-67
2022/08/19 00:44:16;;;;;;;;;;;;;;;26.85;44.67;99246.63;4364088;32;33558;-66
2022/08/19 00:46:44;;;;;;;;;;;;;;;26.81;45.14;99238.22;4361661;32;35124;-66
2022/08/19 00:49:38;;;;;;;;;;;;;;;26.58;45.56;99236.19;4364246;32;34500;-81
2022/08/19 00:52:07;;;;;;;;;;;;;;;27.05;44.74;99231.44;4362789;32;34055;-66
2022/08/19 00:54:36;;;;;;;;;;;;;;;26.70;45.13;99237.22;4364173;32;33464;-67
2022/08/19 00:57:05;;;;;;;;;;;;;;;27.12;44.46;99242.69;4363054;32;34356;-66
2022/08/19 00:59:34;;;;;;;;;;;;;;;26.86;44.71;99237.88;4362826;32;35218;-67
2022/08/19 01:02:21;;;;;;;;;;;;;;;26.88;44.84;99243.09;4363164;32;34388;-66
2022/08/19 01:04:49;;;;;;;;;;;;;;;26.91;44.93;99237.59;4362935;32;34088;-66
2022/08/19 01:07:16;;;;;;;;;;;;;;;26.88;44.10;99231.97;4363743;32;34149;-66
2022/08/19 01:09:45;;;;;;;;;;;;;;;26.56;44.66;99230.19;4363933;32;35419;-66
2022/08/19 01:12:13;;;;;;;;;;;;;;;26.36;45.73;99226.63;4363889;32;34292;-68
2022/08/19 01:14:41;;;;;;;;;;;;;;;26.84;44.64;99233.88;4362637;32;34373;-82
2022/08/19 01:17:08;;;;;;;;;;;;;;;26.72;44.72;99232.09;4362533;32;34288;-66
2022/08/19 01:19:39;;;;;;;;;;;;;;;26.92;44.42;99228.06;4362712;32;35433;-66
2022/08/19 01:22:22;;;;;;;;;;;;;;;26.38;45.78;99223.47;4363041;32;34276;-66
2022/08/19 01:24:57;;;;;;;;;;;;;;;26.59;44.83;99234.25;4362586;32;33368;-66
2022/08/19 01:27:25;;;;;;;;;;;;;;;26.95;44.27;99226.50;4363633;32;34267;-67
2022/08/19 01:29:55;;;;;;;;;;;;;;;26.91;44.45;99228.41;4363728;32;34596;-66
2022/08/19 01:32:23;;;;;;;;;;;;;;;27.21;44.11;99220.16;4363726;32;34385;-66
2022/08/19 01:35:01;;;;;;;;;;;;;;;27.13;43.83;99215.69;4363846;32;34088;-82
2022/08/19 01:37:30;;;;;;;;;;;;;;;27.09;43.82;99220.38;4363863;32;34224;-66
2022/08/19 01:39:57;;;;;;;;;;;;;;;26.73;45.08;99212.22;4363882;32;34545;-67
2022/08/19 01:42:25;;;;;;;;;;;;;;;26.76;44.82;99210.66;4363883;32;33981;-66
2022/08/19 01:44:56;;;;;;;;;;;;;;;26.66;44.93;99208.53;4363951;32;33584;-74
2022/08/19 01:47:24;;;;;;;;;;;;;;;26.36;44.98;99198.81;4363894;32;34947;-66
2022/08/19 01:49:51;;;;;;;;;;;;;;;26.53;44.87;99203.09;4363762;32;35349;-80
2022/08/19 01:52:18;;;;;;;;;;;;;;;26.54;44.76;99196.38;4363883;32;34070;-81
2022/08/19 01:54:45;;;;;;;;;;;;;;;26.48;45.12;99189.50;4363600;32;33548;-66
2022/08/19 01:57:13;;;;;;;;;;;;;;;26.72;45.06;99193.13;4363758;32;34906;-66
2022/08/19 01:59:41;;;;;;;;;;;;;;;26.96;43.95;99184.38;4363519;32;34590;-66
2022/08/19 02:02:08;;;;;;;;;;;;;;;26.65;44.32;99179.06;4362833;32;34183;-69
2022/08/19 02:04:37;;;;;;;;;;;;;;;26.56;44.43;99168.19;4363771;32;33306;-66
2022/08/19 02:07:05;;;;;;;;;;;;;;;26.88;44.14;99177.09;4363282;32;35345;-80
2022/08/19 02:09:32;;;;;;;;;;;;;;;27.09;43.30;99181.41;4363645;32;35440;-66
2022/08/19 02:12:00;;;;;;;;;;;;;;;26.92;43.62;99168.81;4363471;32;33929;-66
2022/08/19 02:14:27;;;;;;;;;;;;;;;26.86;43.86;99178.63;4363303;32;33505;-80
2022/08/19 02:16:54;;;;;;;;;;;;;;;27.10;43.72;99188.56;4363555;32;34079;-66
2022/08/19 02:19:22;;;;;;;;;;;;;;;26.73;44.13;99186.37;4363571;32;35451;-81
2022/08/19 02:21:49;;;;;;;;;;;;;;;27.11;43.18;99176.25;4363560;32;34306;-66
2022/08/19 02:24:16;;;;;;;;;;;;;;;27.23;43.12;99173.28;4363495;32;33420;-66
2022/08/19 02:26:43;;;;;;;;;;;;;;;27.22;43.35;99162.53;4363466;32;34154;-66
2022/08/19 02:29:11;;;;;;;;;;;;;;;27.24;42.78;99157.41;4363686;32;34448;-66
2022/08/19 02:31:38;;;;;;;;;;;;;;;26.93;43.48;99164.81;4363467;32;34967;-67
2022/08/19 02:34:05;;;;;;;;;;;;;;;27.13;43.15;99168.34;4363465;32;33445;-68
2022/08/19 02:36:32;;;;;;;;;;;;;;;27.27;42.83;99178.91;4363325;32;35320;-80
2022/08/19 02:39:00;;;;;;;;;;;;;;;27.30;42.54;99173.41;4363494;32;34641;-66
2022/08/19 02:41:28;;;;;;;;;;;;;;;26.74;43.89;99172.09;4363299;32;35016;-66
2022/08/19 02:43:57;;;;;;;;;;;;;;;26.45;44.60;99169.94;4363063;32;33567;-77
2022/08/19 02:46:45;;;;;;;;;;;;;;;26.60;44.25;99180.19;4362968;32;34934;-66
2022/08/19 02:49:14;;;;;;;;;;;;;;;27.21;42.64;99183.97;4363014;32;34380;-67
2022/08/19 02:51:42;;;;;;;;;;;;;;;27.22;42.63;99182.81;4363448;32;34322;-81
2022/08/19 02:54:10;;;;;;;;;;;;;;;26.98;42.99;99184.03;4363166;32;34068;-66
2022/08/19 02:56:38;;;;;;;;;;;;;;;26.88;43.35;99190.22;4361899;32;34195;-67
2022/08/19 02:59:08;;;;;;;;;;;;;;;27.19;42.59;99187.13;4363307;32;35323;-81
2022/08/19 03:01:40;;;;;;;;;;;;;;;27.32;42.47;99187.75;4363225;32;34651;-67
2022/08/19 03:04:08;;;;;;;;;;;;;;;27.47;42.50;99191.53;4363254;32;33331;-67
2022/08/19 03:06:38;;;;;;;;;;;;;;;27.52;42.33;99185.66;4363088;32;34033;-81
2022/08/19 03:09:06;;;;;;;;;;;;;;;27.61;42.35;99199.31;4362884;32;35220;-67
2022/08/19 03:11:33;;;;;;;;;;;;;;;27.35;42.43;99202.91;4362992;32;34287;-66
2022/08/19 03:14:00;;;;;;;;;;;;;;;27.40;42.51;99202.59;4362777;32;33555;-78
2022/08/19 03:16:28;;;;;;;;;;;;;;;27.27;42.43;99207.56;4362816;32;34174;-66
2022/08/19 03:18:59;;;;;;;;;;;;;;;27.25;42.52;99211.91;4363026;32;34533;-79
2022/08/19 03:21:28;;;;;;;;;;;;;;;27.29;42.62;99218.34;4362977;32;34283;-67
2022/08/19 03:23:56;;;;;;;;;;;;;;;26.78;43.69;99214.72;4362682;32;33718;-78
2022/08/19 03:26:23;;;;;;;;;;;;;;;25.86;45.70;99208.09;4362816;32;34359;-66
2022/08/19 03:28:51;;;;;;;;;;;;;;;26.85;43.68;99216.00;4362941;32;35266;-80
2022/08/19 03:31:26;;;;;;;;;;;;;;;26.72;43.86;99218.97;4362650;32;35014;-67
2022/08/19 03:34:18;;;;;;;;;;;;;;;27.10;43.03;99222.78;4362978;32;33586;-67
2022/08/19 03:36:46;;;;;;;;;;;;;;;26.99;43.40;99227.38;4362619;32;34188;-66
2022/08/19 03:39:13;;;;;;;;;;;;;;;27.19;42.88;99222.50;4361601;32;35149;-83
2022/08/19 03:41:41;;;;;;;;;;;;;;;27.22;42.92;99224.59;4362666;32;33991;-66
2022/08/19 03:44:13;;;;;;;;;;;;;;;26.92;43.46;99230.84;4361630;32;33617;-67
2022/08/19 03:46:45;;;;;;;;;;;;;;;26.65;44.38;99226.38;4362625;32;34157;-68
2022/08/19 03:49:13;;;;;;;;;;;;;;;27.07;43.39;99240.25;4361317;32;34445;-66
2022/08/19 03:51:41;;;;;;;;;;;;;;;27.00;43.61;99242.91;4361370;32;35084;-66
2022/08/19 03:54:10;;;;;;;;;;;;;;;27.06;43.42;99238.63;4362544;32;34169;-66
2022/08/19 03:56:38;;;;;;;;;;;;;;;27.12;43.47;99234.34;4362410;32;34444;-67
2022/08/19 03:59:06;;;;;;;;;;;;;;;26.92;43.75;99235.59;4364387;32;34572;-67
2022/08/19 04:01:34;;;;;;;;;;;;;;;27.00;43.56;99231.78;4364551;32;34432;-76
2022/08/19 04:04:02;;;;;;;;;;;;;;;27.01;43.73;99241.72;4364335;32;33245;-82
2022/08/19 04:06:33;;;;;;;;;;;;;;;27.26;43.32;99244.13;4363296;32;35001;-79
2022/08/19 04:09:02;;;;;;;;;;;;;;;26.73;44.19;99240.03;4363169;32;34301;-66
2022/08/19 04:11:41;;;;;;;;;;;;;;;27.16;43.41;99249.13;4363123;32;33886;-66
2022/08/19 04:14:12;;;;;;;;;;;;;;;27.27;43.13;99251.31;4364103;32;33330;-66
2022/08/19 04:16:40;;;;;;;;;;;;;;;27.26;43.20;99256.09;4364245;32;35084;-67
2022/08/19 04:19:07;;;;;;;;;;;;;;;27.31;43.07;99252.19;4364518;32;34445;-66
2022/08/19 04:21:34;;;;;;;;;;;;;;;27.27;43.72;99251.31;4364264;32;34135;-67
2022/08/19 04:24:02;;;;;;;;;;;;;;;26.70;44.57;99251.12;4364445;32;33621;-82
2022/08/19 04:26:31;;;;;;;;;;;;;;;26.88;44.04;99249.47;4364441;32;34269;-80
2022/08/19 04:28:59;;;;;;;;;;;;;;;26.33;45.65;99257.16;4364104;32;35161;-66
2022/08/19 04:31:29;;;;;;;;;;;;;;;26.67;44.89;99260.19;4364451;32;34097;-67
2022/08/19 04:33:57;;;;;;;;;;;;;;;26.70;44.61;99256.69;4364250;32;34072;-66
2022/08/19 04:36:25;;;;;;;;;;;;;;;26.47;45.33;99260.19;4364334;32;34230;-67
2022/08/19 04:38:54;;;;;;;;;;;;;;;26.61;44.91;99254.16;4363312;32;34441;-68
2022/08/19 04:44:08;;;;;;;;;;;;;;;26.72;44.98;99254.34;4364133;32;33196;-67
2022/08/19 04:46:35;;;;;;;;;;;;;;;26.27;45.99;99259.41;4364440;32;35075;-66
2022/08/19 04:49:18;;;;;;;;;;;;;;;26.16;46.22;99261.19;4363782;32;34262;-66
2022/08/19 04:51:47;;;;;;;;;;;;;;;26.89;44.36;99259.44;4362790;32;35078;-81
2022/08/19 04:54:15;;;;;;;;;;;;;;;26.46;45.65;99264.16;4364153;32;33341;-66
2022/08/19 04:57:06;;;;;;;;;;;;;;;26.47;45.47;99262.97;4363215;32;34112;-66
2022/08/19 04:59:34;;;;;;;;;;;;;;;26.70;45.14;99263.06;4364047;32;34443;-66
2022/08/19 05:02:02;;;;;;;;;;;;;;;27.42;43.59;99273.47;4363869;32;34908;-74
2022/08/19 05:04:30;;;;;;;;;;;;;;;28.05;42.51;99275.97;4364275;32;33197;-81
2022/08/19 05:06:58;;;;;;;;;;;;;;;27.88;43.03;99272.56;4364202;32;34348;-66
2022/08/19 05:09:27;;;;;;;;;;;;;;;27.67;42.70;99270.25;4363568;32;34237;-66
2022/08/19 05:12:15;;;;;;;;;;;;;;;27.07;44.03;99270.06;4363808;32;35036;-66
2022/08/19 05:14:45;;;;;;;;;;;;;;;27.50;43.21;99270.81;4363813;32;33621;-70
2022/08/19 05:17:13;;;;;;;;;;;;;;;26.88;44.75;99268.16;4364190;32;34111;-77
2022/08/19 05:22:47;;;;;;;;;;;;;;;27.09;44.28;99262.16;4363778;32;35104;-67
2022/08/19 05:25:18;;;;;;;;;;;;;;;27.13;44.03;99268.59;4363972;32;33050;-66
2022/08/19 05:27:46;;;;;;;;;;;;;;;27.29;44.30;99274.84;4364002;32;34218;-67
2022/08/19 05:30:14;;;;;;;;;;;;;;;27.54;43.47;99271.66;4363587;32;34250;-66
2022/08/19 05:32:41;;;;;;;;;;;;;;;27.41;43.72;99273.84;4363944;32;34178;-75
2022/08/19 05:35:09;;;;;;;;;;;;;;;27.71;42.84;99285.06;4363919;32;34232;-66
2022/08/19 05:37:36;;;;;;;;;;;;;;;27.29;44.19;99274.03;4363607;32;34367;-78
2022/08/19 05:40:04;;;;;;;;;;;;;;;27.73;43.61;99276.31;4364065;32;34464;-78
2022/08/19 05:42:31;;;;;;;;;;;;;;;27.28;44.17;99281.59;4363792;32;34386;-66
2022/08/19 05:44:58;;;;;;;;;;;;;;;27.79;43.29;99283.16;4363565;32;33564;-66
2022/08/19 05:47:26;;;;;;;;;;;;;;;27.49;43.63;99285.91;4363787;32;34911;-66
2022/08/19 05:49:53;;;;;;;;;;;;;;;27.66;43.42;99277.00;4363505;32;34211;-66
2022/08/19 05:52:20;;;;;;;;;;;;;;;27.22;44.11;99279.50;4363618;32;34307;-77
2022/08/19 05:54:54;;;;;;;;;;;;;;;27.13;44.35;99280.53;4363987;32;32602;-66
2022/08/19 05:57:22;;;;;;;;;;;;;;;27.21;44.47;99275.88;4363681;32;35108;-65
2022/08/19 05:59:51;;;;;;;;;;;;;;;27.76;42.99;99276.37;4363718;32;34516;-66
2022/08/19 06:02:25;;;;;;;;;;;;;;;27.39;43.78;99276.22;4363719;32;34165;-78
2022/08/19 06:04:52;;;;;;;;;;;;;;;27.71;43.72;99271.13;4363442;32;33200;-66
2022/08/19 06:07:20;;;;;;;;;;;;;;;27.70;43.22;99269.50;4363761;32;35084;-66
2022/08/19 06:09:47;;;;;;;;;;;;;;;27.45;43.35;99268.31;4363442;32;34454;-76
2022/08/19 06:12:32;;;;;;;;;;;;;;;27.73;42.85;99271.56;4363245;32;34346;-79
2022/08/19 06:15:00;;;;;;;;;;;;;;;27.73;43.18;99265.97;4362361;32;34317;-66
2022/08/19 06:17:29;;;;;;;;;;;;;;;27.98;42.58;99263.53;4363703;32;34310;-66
2022/08/19 06:19:58;;;;;;;;;;;;;;;27.59;42.85;99271.34;4362511;32;34574;-65
2022/08/19 06:22:25;;;;;;;;;;;;;;;27.53;43.02;99268.06;4363698;32;34285;-65
2022/08/19 06:24:53;;;;;;;;;;;;;;;28.05;42.23;99267.63;4363245;32;33236;-66
2022/08/19 06:27:21;;;;;;;;;;;;;;;28.21;42.11;99259.88;4363581;32;34180;-65
2022/08/19 06:29:48;;;;;;;;;;;;;;;27.87;42.50;99261.81;4363307;32;34303;-75
2022/08/19 06:32:16;;;;;;;;;;;;;;;28.06;41.78;99261.66;4363305;32;35047;-66
2022/08/19 06:34:43;;;;;;;;;;;;;;;27.93;42.62;99255.53;4363384;32;33391;-78
2022/08/19 06:37:11;;;;;;;;;;;;;;;28.05;42.33;99246.09;4363405;32;34718;-66
2022/08/19 06:39:39;;;;;;;;;;;;;;;28.16;41.84;99240.66;4362006;32;35469;-66
2022/08/19 06:42:09;;;;;;;;;;;;;;;28.35;41.68;99242.47;4363280;32;34387;-78
2022/08/19 06:44:38;;;;;;;;;;;;;;;28.68;40.91;99241.66;4363452;32;33441;-79
2022/08/19 06:47:10;;;;;;;;;;;;;;;28.54;41.24;99242.31;4361914;32;34385;-66
2022/08/19 06:49:41;;;;;;;;;;;;;;;28.77;40.87;99255.31;4363340;32;35589;-79
2022/08/19 06:52:11;;;;;;;;;;;;;;;28.53;41.04;99256.66;4363318;32;34232;-65
2022/08/19 06:54:41;;;;;;;;;;;;;;;28.23;41.59;99261.09;4363072;32;33437;-66
2022/08/19 06:57:23;;;;;;;;;;;;;;;28.15;41.60;99272.53;4363454;32;34459;-78
2022/08/19 06:59:50;;;;;;;;;;;;;;;28.39;42.56;99274.03;4363156;32;34570;-66
2022/08/19 07:02:18;;;;;;;;;;;;;;;28.60;41.70;99281.88;4363331;32;34107;-82
2022/08/19 07:04:45;;;;;;;;;;;;;;;28.98;40.72;99285.44;4363272;32;33991;-77
2022/08/19 07:07:13;;;;;;;;;;;;;;;28.61;41.25;99286.25;4362867;32;34198;-66
2022/08/19 07:09:47;;;;;;;;;;;;;;;28.64;40.86;99285.50;4362981;32;35285;-76
2022/08/19 07:12:27;;;;;;;;;;;;;;;28.49;41.69;99292.09;4362842;32;34753;-68
2022/08/19 07:14:57;;;;;;;;;;;;;;;28.70;41.54;99297.13;4362841;32;33955;-66
2022/08/19 07:17:24;;;;;;;;;;;;;;;28.54;40.74;99297.34;4362986;32;34109;-80
2022/08/19 07:19:52;;;;;;;;;;;;;;;29.34;39.41;99292.16;4362808;32;34056;-82
2022/08/19 07:22:22;;;;;;;;;;;;;;;29.19;40.44;99296.84;4361729;32;34070;-66
2022/08/19 07:24:53;;;;;;;;;;;;;;;28.87;40.88;99296.50;4362852;32;34217;-66
2022/08/19 07:27:20;;;;;;;;;;;;;;;29.15;39.59;99298.00;4362773;32;34440;-76
2022/08/19 07:29:52;;;;;;;;;;;;;;;29.07;39.68;99291.50;4362738;32;34233;-78
2022/08/19 07:32:22;;;;;;;;;;;;;;;29.62;38.44;99290.78;4363955;32;35120;-66
2022/08/19 07:34:49;;;;;;;;;;;;;;;29.71;38.49;99290.47;4364774;32;33558;-66
2022/08/19 07:37:17;;;;;;;;;;;;;;;29.54;39.57;99289.12;4364578;32;35057;-65
2022/08/19 07:39:44;;;;;;;;;;;;;;;29.14;39.76;99290.81;4364449;32;34528;-75
2022/08/19 07:42:11;;;;;;;;;;;;;;;29.54;38.80;99281.53;4364836;32;34319;-79
2022/08/19 07:44:40;;;;;;;;;;;;;;;30.03;37.78;99280.28;4364577;32;33157;-66
2022/08/19 07:47:15;;;;;;;;;;;;;;;30.21;38.74;99285.16;4364478;32;35113;-71
2022/08/19 07:50:04;;;;;;;;;;;;;;;30.16;38.29;99277.94;4364590;32;34543;-65
2022/08/19 07:52:36;;;;;;;;;;;;;;;30.24;37.28;99282.38;4364841;32;35151;-66
2022/08/19 07:55:03;;;;;;;;;;;;;;;30.60;37.75;99285.31;4364463;32;33800;-66
2022/08/19 07:57:31;;;;;;;;;;;;;;;30.59;36.63;99289.31;4364295;32;34408;-65
2022/08/19 07:59:58;;;;;;;;;;;;;;;30.20;37.00;99291.97;4364578;32;34550;-66
2022/08/19 08:02:25;;;;;;;;;;;;;;;30.12;37.71;99293.09;4364448;32;35133;-79
2022/08/19 08:10:25;;;;;;;;;;;;;;;30.80;36.47;99291.38;4364138;32;34317;-66
2022/08/19 08:12:55;;;;;;;;;;;;;;;30.79;36.64;99284.16;4364345;32;34971;-80
2022/08/19 08:15:38;;;;;;;;;;;;;;;31.09;35.41;99291.44;4364017;32;33267;-66
2022/08/19 08:18:09;;;;;;;;;;;;;;;31.37;34.46;99293.47;4364291;32;35023;-79
2022/08/19 08:20:37;;;;;;;;;;;;;;;31.02;34.38;99294.25;4364192;32;34285;-65
2022/08/19 08:23:23;;;;;;;;;;;;;;;31.09;34.45;99287.84;4364324;32;33878;-66
2022/08/19 08:25:54;;;;;;;;;;;;;;;30.75;34.63;99291.75;4364475;32;34349;-78
2022/08/19 08:28:22;;;;;;;;;;;;;;;31.79;32.92;99293.84;4364228;32;35233;-66
2022/08/19 08:30:50;;;;;;;;;;;;;;;31.48;32.91;99290.69;4364440;32;34185;-66
2022/08/19 08:33:21;;;;;;;;;;;;;;;31.87;32.38;99287.00;4364060;32;34296;-66
2022/08/19 08:36:01;;;;;;;;;;;;;;;31.91;32.03;99278.59;4364296;32;34305;-80
2022/08/19 08:38:31;;;;;;;;;;;;;;;32.11;31.39;99281.75;4364233;32;35074;-65
2022/08/19 08:41:25;;;;;;;;;;;;;;;32.56;31.02;99274.38;4364098;32;35277;-79
2022/08/19 08:43:53;;;;;;;;;;;;;;;31.89;30.98;99256.53;4363405;32;34431;-79
2022/08/19 08:46:20;;;;;;;;;;;;;;;32.16;31.28;99256.91;4364296;32;33430;-66
2022/08/19 08:49:03;;;;;;;;;;;;;;;32.55;30.79;99266.34;4364115;32;35361;-67
2022/08/19 08:51:35;;;;;;;;;;;;;;;33.15;29.33;99281.22;4364007;32;34289;-66
2022/08/19 08:54:04;;;;;;;;;;;;;;;32.58;30.02;99288.00;4350956;32;34298;-66
2022/08/19 08:56:32;;;;;;;;;;;;;;;33.13;28.93;99273.19;4350806;32;33373;-66
2022/08/19 08:59:00;;;;;;;;;;;;;;;32.95;28.93;99275.31;4350720;32;35168;-65
2022/08/19 09:01:27;;;;;;;;;;;;;;;32.93;29.38;99266.50;4364068;32;35331;-76
2022/08/19 09:03:56;;;;;;;;;;;;;;;32.58;31.02;99266.31;4363807;32;35098;-66
2022/08/19 09:06:33;;;;;;;;;;;;;;;32.97;30.51;99264.47;4351288;32;34327;-66
2022/08/19 09:09:03;;;;;;;;;;;;;;;32.83;29.38;99260.56;4363957;32;34084;-65
2022/08/19 09:11:38;;;;;;;;;;;;;;;33.37;29.21;99260.16;4363900;32;34483;-66
2022/08/19 09:14:31;;;;;;;;;;;;;;;32.93;30.00;99255.28;4363735;32;35105;-79
2022/08/19 09:17:16;;;;;;;;;;;;;;;33.04;29.12;99264.41;4352549;32;34235;-65
2022/08/19 09:19:50;;;;;;;;;;;;;;;33.36;28.35;99263.38;4363787;32;35017;-79
2022/08/19 09:22:21;;;;;;;;;;;;;;;33.48;28.01;99254.44;4363895;32;35342;-66
2022/08/19 09:24:52;;;;;;;;;;;;;;;32.84;28.50;99238.87;4363861;32;34058;-78
2022/08/19 09:27:20;;;;;;;;;;;;;;;33.08;28.79;99248.34;4363891;32;33588;-66
2022/08/19 09:30:08;;;;;;;;;;;;;;;33.53;27.95;99247.56;4363621;32;35169;-66
2022/08/19 09:32:36;;;;;;;;;;;;;;;33.43;28.41;99246.44;4350290;32;34336;-78
2022/08/19 09:35:03;;;;;;;;;;;;;;;33.64;27.47;99246.25;4363736;32;34052;-65
2022/08/19 09:37:35;;;;;;;;;;;;;;;33.05;27.99;99247.16;4363792;32;33592;-81
2022/08/19 09:40:02;;;;;;;;;;;;;;;33.35;28.20;99240.09;4363879;32;33990;-65
2022/08/19 09:42:30;;;;;;;;;;;;;;;33.48;29.03;99252.41;4363724;32;35299;-80
2022/08/19 09:45:02;;;;;;;;;;;;;;;33.54;28.21;99238.69;4363542;32;34161;-78
2022/08/19 09:47:37;;;;;;;;;;;;;;;33.35;28.40;99244.91;4363965;32;33701;-66
2022/08/19 09:50:07;;;;;;;;;;;;;;;33.43;28.54;99235.19;4363560;32;34379;-66
2022/08/19 09:52:37;;;;;;;;;;;;;;;33.40;28.27;99236.81;4364057;32;34443;-72
2022/08/19 09:55:05;;;;;;;;;;;;;;;33.29;28.96;99225.69;4363617;32;34223;-68
2022/08/19 09:57:34;;;;;;;;;;;;;;;33.10;29.52;99209.41;4363533;32;34189;-66
2022/08/19 10:00:03;;;;;;;;;;;;;;;33.23;29.39;99224.53;4363686;32;34252;-67
2022/08/19 10:02:33;;;;;;;;;;;;;;;33.13;29.26;99228.22;4363677;32;34447;-66
2022/08/19 10:07:53;;;;;;;;;;;;;;;34.12;28.75;99222.00;4363700;32;33230;-66
2022/08/19 10:10:23;;;;;;;;;;;;;;;34.12;28.75;99227.62;4363405;32;34572;-77
2022/08/19 10:12:51;;;;;;;;;;;;;;;34.39;27.60;99213.59;4363455;32;34311;-78
2022/08/19 10:15:20;;;;;;;;;;;;;;;34.13;27.73;99208.72;4363513;32;34343;-66
2022/08/19 10:17:55;;;;;;;;;;;;;;;34.56;27.29;99217.41;4363626;32;34246;-76
2022/08/19 10:20:24;;;;;;;;;;;;;;;34.33;27.22;99206.06;4363569;32;35066;-78
2022/08/19 10:22:52;;;;;;;;;;;;;;;34.06;27.91;99206.78;4363090;32;35394;-66
2022/08/19 10:25:19;;;;;;;;;;;;;;;34.14;27.31;99205.50;4363737;32;34396;-66
2022/08/19 10:27:46;;;;;;;;;;;;;;;34.36;27.91;99203.19;4363863;32;33511;-78
2022/08/19 10:30:17;;;;;;;;;;;;;;;34.27;27.13;99203.69;4363268;32;34256;-78
2022/08/19 10:32:46;;;;;;;;;;;;;;;34.41;26.83;99199.91;4363495;32;34223;-79
2022/08/19 10:35:14;;;;;;;;;;;;;;;34.67;26.55;99206.00;4363521;32;34957;-82
2022/08/19 10:37:48;;;;;;;;;;;;;;;34.82;26.41;99201.72;4363386;32;34198;-71
2022/08/19 10:40:23;;;;;;;;;;;;;;;35.48;25.45;99205.81;4363507;32;34190;-67
2022/08/19 10:42:50;;;;;;;;;;;;;;;34.88;25.37;99207.66;4363235;32;34294;-66
2022/08/19 10:45:17;;;;;;;;;;;;;;;35.14;25.73;99211.69;4363457;32;35120;-78
2022/08/19 10:47:46;;;;;;;;;;;;;;;35.04;25.81;99207.78;4363438;32;33450;-79
2022/08/19 10:53:03;;;;;;;;;;;;;;;35.50;25.26;99203.38;4363504;32;34101;-67
2022/08/19 10:58:24;;;;;;;;;;;;;;;35.56;24.62;99209.31;4363166;32;34049;-71
2022/08/19 11:00:53;;;;;;;;;;;;;;;35.55;24.21;99204.88;4362873;32;35043;-66
2022/08/19 11:03:20;;;;;;;;;;;;;;;35.23;25.85;99200.66;4363134;32;34419;-66
2022/08/19 11:05:56;;;;;;;;;;;;;;;35.39;25.44;99197.12;4362602;32;35105;-66
2022/08/19 11:08:26;;;;;;;;;;;;;;;35.66;24.37;99199.06;4363136;32;32744;-66
2022/08/19 11:10:56;;;;;;;;;;;;;;;36.17;23.51;99202.47;4362782;32;34435;-67
2022/08/19 11:13:24;;;;;;;;;;;;;;;36.46;23.30;99205.47;4362604;32;34501;-66
2022/08/19 11:16:01;;;;;;;;;;;;;;;37.08;23.64;99199.16;4363097;32;34169;-67
2022/08/19 11:18:40;;;;;;;;;;;;;;;37.25;22.21;99202.78;4362811;32;33539;-67
2022/08/19 11:21:09;;;;;;;;;;;;;;;37.43;22.13;99207.97;4362851;32;34061;-68
2022/08/19 11:23:36;;;;;;;;;;;;;;;37.48;21.90;99210.28;4363041;32;34508;-67
2022/08/19 11:26:03;;;;;;;;;;;;;;;37.67;21.75;99217.03;4362707;32;34100;-80
2022/08/19 11:28:31;;;;;;;;;;;;;;;36.91;21.83;99212.50;4363175;32;33537;-66
2022/08/19 11:30:58;;;;;;;;;;;;;;;37.32;22.19;99214.72;4362717;32;35073;-66
2022/08/19 11:33:26;;;;;;;;;;;;;;;36.64;22.46;99204.28;4362648;32;34214;-81
2022/08/19 11:35:54;;;;;;;;;;;;;;;37.15;22.22;99199.00;4362505;32;34988;-67
2022/08/19 11:38:21;;;;;;;;;;;;;;;37.26;22.12;99201.53;4362908;32;33748;-66
2022/08/19 11:40:55;;;;;;;;;;;;;;;36.66;22.93;99207.47;4362588;32;34018;-79
2022/08/19 11:43:22;;;;;;;;;;;;;;;36.37;23.09;99199.59;4349267;32;35457;-67
2022/08/19 11:45:50;;;;;;;;;;;;;;;36.66;23.01;99196.97;4362642;32;34323;-66
2022/08/19 11:48:21;;;;;;;;;;;;;;;36.98;22.54;99197.38;4362422;32;34334;-67
2022/08/19 11:50:49;;;;;;;;;;;;;;;37.05;22.46;99185.91;4352775;32;34719;-67
2022/08/19 11:53:18;;;;;;;;;;;;;;;37.37;22.73;99187.94;4346355;32;35174;-67
2022/08/19 11:55:48;;;;;;;;;;;;;;;37.21;22.08;99185.91;4339057;32;34272;-65
2022/08/19 11:58:16;;;;;;;;;;;;;;;37.36;22.89;99186.31;4354597;32;33454;-66
2022/08/19 12:00:45;;;;;;;;;;;;;;;37.57;22.85;99187.81;4355326;32;34130;-70
2022/08/19 12:03:12;;;;;;;;;;;;;;;37.44;22.83;99181.28;4360863;32;34384;-63
2022/08/19 12:05:40;;;;;;;;;;;;;;;37.46;21.76;99196.56;4361097;32;34211;-77
2022/08/19 12:08:07;;;;;;;;;;;;;;;37.63;21.97;99196.56;4360968;32;34155;-67
2022/08/19 12:10:35;;;;;;;;;;;;;;;37.39;21.95;99198.78;4360309;32;34460;-66
2022/08/19 12:13:02;;;;;;;;;;;;;;;36.72;22.82;99191.59;4360769;32;35205;-78
2022/08/19 12:15:30;;;;;;;;;;;;;;;36.84;22.57;99190.84;4358425;32;33787;-64
2022/08/19 12:18:04;;;;;;;;;;;;;;;36.84;22.83;99184.41;4361297;32;33116;-64
2022/08/19 12:20:33;;;;;;;;;;;;;;;37.46;23.83;99190.12;4363201;32;34029;-65
2022/08/19 12:23:03;;;;;;;;;;;;;;;37.72;22.67;99194.66;4349758;32;33897;-65
2022/08/19 12:25:31;;;;;;;;;;;;;;;37.64;22.42;99183.97;4347306;32;34735;-65
2022/08/19 12:27:58;;;;;;;;;;;;;;;37.92;21.38;99188.81;4348079;33;33530;-63
2022/08/19 12:30:26;;;;;;;;;;;;;;;37.33;22.02;99193.66;4358541;32;34071;-66
2022/08/19 12:32:53;;;;;;;;;;;;;;;37.44;22.51;99179.22;4363152;32;34433;-76
2022/08/19 12:35:20;;;;;;;;;;;;;;;36.94;23.23;99175.66;4363131;32;34328;-66
2022/08/19 12:37:48;;;;;;;;;;;;;;;37.07;22.19;99169.31;4363210;32;33402;-82
2022/08/19 12:40:23;;;;;;;;;;;;;;;37.68;22.05;99168.47;4362684;32;35099;-81
2022/08/19 12:42:53;;;;;;;;;;;;;;;38.09;21.14;99164.06;4362720;32;35005;-65
2022/08/19 12:45:20;;;;;;;;;;;;;;;37.99;21.30;99155.84;4351131;32;33737;-72
2022/08/19 12:47:49;;;;;;;;;;;;;;;37.76;21.63;99154.91;4350076;32;34094;-65
2022/08/19 12:50:21;;;;;;;;;;;;;;;37.38;21.54;99152.72;4362888;32;34348;-70
2022/08/19 12:52:48;;;;;;;;;;;;;;;36.90;21.89;99137.41;4358685;32;34448;-67
2022/08/19 12:55:18;;;;;;;;;;;;;;;37.15;21.88;99143.25;4361237;32;34219;-65
2022/08/19 12:57:45;;;;;;;;;;;;;;;36.86;22.51;99148.81;4362893;32;32996;-74
2022/08/19 13:00:14;;;;;;;;;;;;;;;36.93;22.34;99145.81;4362853;32;35191;-67
2022/08/19 13:02:43;;;;;;;;;;;;;;;37.13;22.49;99147.75;4361451;32;34143;-66
2022/08/19 13:05:12;;;;;;;;;;;;;;;37.17;21.84;99148.44;4361308;32;33697;-65
2022/08/19 13:07:40;;;;;;;;;;;;;;;37.21;21.99;99145.50;4351198;32;34362;-65
2022/08/19 13:10:08;;;;;;;;;;;;;;;37.09;22.25;99149.88;4347513;33;34057;-64
2022/08/19 13:12:35;;;;;;;;;;;;;;;36.28;23.00;99145.75;4347784;33;34791;-64
2022/08/19 13:15:03;;;;;;;;;;;;;;;36.61;22.70;99140.97;4347896;33;33790;-64
2022/08/19 13:17:37;;;;;;;;;;;;;;;36.89;22.41;99145.09;4347714;33;33286;-64
2022/08/19 13:20:07;;;;;;;;;;;;;;;37.13;21.84;99142.09;4347846;33;34147;-76
2022/08/19 13:22:35;;;;;;;;;;;;;;;37.08;22.02;99136.94;4347653;32;34527;-64